Time;durP1;ratioP1;P1;durP2;ratioP2;P2;SDS_P1;SDS_P2;PMS_P1;PMS_P2;Temp;Humidity;BMP_temperature;BMP_pressure;BME280_temperature;BME280_humidity;BME280_pressure;Samples;Min_cycle;Max_cycle;Signal;HPM_P1;HPM_P2
2022/03/31 00:00:38;;;;;;;15.50;9.50;;;;;;;2.63;82.54;97084.60;108041;1278;25399;-72
2022/03/31 00:03:19;;;;;;;12.30;8.50;;;;;;;2.61;82.60;97077.28;108056;1278;22544;-69
2022/03/31 00:05:50;;;;;;;10.70;7.70;;;;;;;2.61;82.71;97071.63;108031;1278;22802;-71
2022/03/31 00:08:19;;;;;;;13.40;8.80;;;;;;;2.58;82.65;97067.02;108184;1277;22550;-75
2022/03/31 00:10:52;;;;;;;12.80;8.60;;;;;;;2.51;82.96;97065.52;108244;1278;22553;-74
2022/03/31 00:13:24;;;;;;;12.70;9.00;;;;;;;2.51;83.04;97070.68;108274;1279;22571;-72
2022/03/31 00:15:57;;;;;;;14.70;10.30;;;;;;;2.49;82.85;97076.49;108312;1277;22584;-70
2022/03/31 00:18:27;;;;;;;13.20;8.30;;;;;;;2.48;82.89;97075.34;108297;1278;22544;-75
2022/03/31 00:20:54;;;;;;;12.00;9.30;;;;;;;2.45;82.76;97072.76;108210;1277;22684;-69
2022/03/31 00:23:21;;;;;;;11.10;8.70;;;;;;;2.44;82.60;97072.27;108130;1278;22546;-69
2022/03/31 00:25:48;;;;;;;12.30;9.40;;;;;;;2.43;82.62;97069.77;108101;1279;22667;-69
2022/03/31 00:28:16;;;;;;;15.20;10.40;;;;;;;2.43;82.83;97069.06;108203;1279;22707;-74
2022/03/31 00:30:43;;;;;;;12.80;9.40;;;;;;;2.43;82.91;97066.52;108119;1278;22590;-70
2022/03/31 00:33:10;;;;;;;14.50;10.10;;;;;;;2.42;82.95;97068.77;108101;1277;25365;-71
2022/03/31 00:35:37;;;;;;;12.10;8.60;;;;;;;2.43;82.88;97069.96;108126;1277;22547;-73
2022/03/31 00:38:04;;;;;;;16.50;11.40;;;;;;;2.40;82.71;97070.14;108094;1278;22541;-71
2022/03/31 00:40:32;;;;;;;12.70;8.90;;;;;;;2.39;82.52;97070.54;108130;1278;23079;-74
2022/03/31 00:42:59;;;;;;;17.60;11.30;;;;;;;2.37;82.49;97067.70;108091;1278;22722;-70
2022/03/31 00:45:32;;;;;;;12.00;8.70;;;;;;;2.39;82.61;97072.26;108098;1278;22574;-72
2022/03/31 00:48:00;;;;;;;12.20;9.00;;;;;;;2.41;82.40;97071.94;108071;1277;23221;-75
2022/03/31 00:50:30;;;;;;;12.90;8.90;;;;;;;2.41;82.43;97069.87;108095;1278;22661;-76
2022/03/31 00:52:57;;;;;;;10.90;8.10;;;;;;;2.34;82.28;97075.63;108104;1277;22692;-75
2022/03/31 00:55:24;;;;;;;11.10;7.70;;;;;;;2.32;82.21;97075.55;108148;1277;22536;-71
2022/03/31 00:57:55;;;;;;;10.90;7.90;;;;;;;2.28;81.97;97076.29;108162;1278;22538;-77
2022/03/31 01:00:22;;;;;;;12.10;8.80;;;;;;;2.28;82.04;97078.05;108128;1277;22535;-77
2022/03/31 01:02:49;;;;;;;15.80;11.10;;;;;;;2.30;82.14;97075.52;108062;1277;23018;-68
2022/03/31 01:05:16;;;;;;;15.90;12.40;;;;;;;2.30;82.32;97075.88;108004;1279;22566;-67
2022/03/31 01:07:43;;;;;;;14.00;10.60;;;;;;;2.30;82.61;97077.21;108099;1278;22675;-73
2022/03/31 01:10:13;;;;;;;10.70;8.30;;;;;;;2.32;82.78;97078.31;108078;1278;22572;-69
2022/03/31 01:12:41;;;;;;;11.80;7.50;;;;;;;2.28;82.56;97081.27;108133;1278;22536;-70
2022/03/31 01:15:18;;;;;;;11.50;8.50;;;;;;;2.24;82.30;97080.46;108044;1278;22671;-69
2022/03/31 01:17:48;;;;;;;11.70;8.40;;;;;;;2.20;82.48;97075.20;108037;1278;22580;-69
2022/03/31 01:20:20;;;;;;;16.80;12.60;;;;;;;2.23;82.35;97077.41;108141;1278;22565;-73
2022/03/31 01:22:50;;;;;;;16.50;12.50;;;;;;;2.23;82.53;97073.30;108073;1277;25253;-76
2022/03/31 01:25:18;;;;;;;14.60;10.60;;;;;;;2.26;82.74;97072.79;108114;1278;22558;-69
2022/03/31 01:27:48;;;;;;;18.40;10.90;;;;;;;2.24;82.65;97075.32;108117;1278;25399;-70
2022/03/31 01:30:18;;;;;;;15.30;11.10;;;;;;;2.25;82.44;97077.84;108139;1278;22546;-69
2022/03/31 01:32:46;;;;;;;11.80;8.90;;;;;;;2.23;82.37;97077.08;108097;1278;22616;-68
2022/03/31 01:35:14;;;;;;;14.20;9.90;;;;;;;2.24;82.16;97081.35;108291;1278;22779;-73
2022/03/31 01:37:42;;;;;;;19.30;12.70;;;;;;;2.25;81.96;97077.84;108065;1277;22664;-76
2022/03/31 01:40:10;;;;;;;15.50;11.70;;;;;;;2.31;82.11;97073.40;108057;1277;22557;-76
2022/03/31 01:42:37;;;;;;;14.20;11.00;;;;;;;2.30;82.59;97077.95;108064;1278;22629;-69
2022/03/31 01:45:07;;;;;;;11.30;9.00;;;;;;;2.31;82.63;97077.88;108099;1278;22545;-74
2022/03/31 01:47:35;;;;;;;15.30;10.50;;;;;;;2.23;82.66;97080.87;108174;1279;22594;-82
2022/03/31 01:50:04;;;;;;;13.60;10.30;;;;;;;2.19;82.41;97081.07;108043;1279;22760;-71
2022/03/31 01:52:31;;;;;;;15.50;11.10;;;;;;;2.16;82.37;97086.60;108084;1277;22633;-73
2022/03/31 01:54:58;;;;;;;15.00;10.90;;;;;;;2.15;82.15;97088.19;108109;1278;22573;-69
2022/03/31 01:57:25;;;;;;;15.60;11.60;;;;;;;2.20;81.99;97088.75;107929;1278;264329;-69
2022/03/31 01:59:52;;;;;;;17.70;12.60;;;;;;;2.20;82.12;97092.21;108124;1277;24383;-76
2022/03/31 02:02:20;;;;;;;16.00;12.50;;;;;;;2.22;82.36;97097.28;108062;1277;22721;-69
2022/03/31 02:04:47;;;;;;;12.50;9.80;;;;;;;2.22;82.63;97101.34;108079;1277;22548;-74
2022/03/31 02:07:14;;;;;;;14.40;10.90;;;;;;;2.19;82.51;97102.58;108093;1278;22584;-69
2022/03/31 02:09:41;;;;;;;11.00;8.40;;;;;;;2.18;82.25;97104.85;108015;1278;23011;-69
2022/03/31 02:12:09;;;;;;;12.00;9.70;;;;;;;2.19;82.14;97100.31;108095;1277;22578;-69
2022/03/31 02:14:40;;;;;;;15.40;11.20;;;;;;;2.15;82.19;97101.60;108197;1278;22718;-73
2022/03/31 02:17:11;;;;;;;13.60;10.80;;;;;;;2.18;82.00;97102.46;108138;1278;22534;-68
2022/03/31 02:19:38;;;;;;;13.80;9.50;;;;;;;2.21;82.05;97103.33;108039;1278;25488;-68
2022/03/31 02:22:05;;;;;;;9.80;7.20;;;;;;;2.20;82.26;97104.41;108035;1278;22691;-75
2022/03/31 02:24:35;;;;;;;9.00;6.50;;;;;;;2.18;82.48;97105.05;108092;1277;22657;-70
2022/03/31 02:27:03;;;;;;;9.50;7.30;;;;;;;2.14;82.64;97105.05;108107;1277;22564;-74
2022/03/31 02:29:30;;;;;;;11.20;7.60;;;;;;;2.12;82.31;97104.70;108260;1277;22539;-72
2022/03/31 02:31:57;;;;;;;11.80;7.70;;;;;;;2.11;81.94;97104.20;108090;1277;22535;-73
2022/03/31 02:34:25;;;;;;;10.60;7.50;;;;;;;2.09;81.89;97103.45;108090;1277;24464;-79
2022/03/31 02:36:52;;;;;;;13.10;9.60;;;;;;;2.14;81.79;97102.71;108151;1278;22659;-70
2022/03/31 02:39:19;;;;;;;11.70;9.10;;;;;;;2.16;82.28;97099.95;108132;1278;22679;-71
2022/03/31 02:41:47;;;;;;;11.00;8.50;;;;;;;2.18;82.64;97102.27;108155;1278;22534;-69
2022/03/31 02:44:15;;;;;;;8.80;6.80;;;;;;;2.16;82.89;97096.92;108177;1277;22705;-71
2022/03/31 02:46:43;;;;;;;8.10;6.80;;;;;;;2.14;82.78;97094.10;108028;1277;22637;-69
2022/03/31 02:49:10;;;;;;;8.90;6.70;;;;;;;2.12;82.75;97092.51;108102;1277;22715;-70
2022/03/31 02:51:38;;;;;;;9.20;6.00;;;;;;;2.11;82.36;97097.20;108094;1277;26793;-69
2022/03/31 02:56:52;;;;;;;18.80;14.70;;;;;;;2.10;82.07;97097.94;108099;1278;22565;-68
2022/03/31 02:59:19;;;;;;;18.10;13.50;;;;;;;2.12;82.38;97097.65;108101;1277;22763;-74
2022/03/31 03:01:46;;;;;;;16.50;11.10;;;;;;;2.13;82.81;97103.05;108096;1277;22563;-74
2022/03/31 03:04:13;;;;;;;15.30;10.30;;;;;;;2.08;82.99;97102.31;108105;1277;22554;-73
2022/03/31 03:06:41;;;;;;;15.10;10.40;;;;;;;2.01;83.24;97106.48;108112;1277;22529;-68
2022/03/31 03:09:08;;;;;;;15.90;9.60;;;;;;;1.98;82.92;97102.59;108108;1277;22638;-68
2022/03/31 03:11:35;;;;;;;18.20;12.70;;;;;;;1.96;82.39;97098.52;108086;1278;22676;-74
2022/03/31 03:14:03;;;;;;;18.20;14.00;;;;;;;1.98;82.54;97097.23;108114;1277;22575;-73
2022/03/31 03:16:30;;;;;;;16.30;13.00;;;;;;;1.97;82.79;97099.55;108134;1277;22626;-68
2022/03/31 03:18:59;;;;;;;15.10;11.30;;;;;;;1.98;82.97;97098.40;108132;1277;22664;-74
2022/03/31 03:21:26;;;;;;;13.80;11.30;;;;;;;1.96;83.19;97103.16;108158;1278;22545;-70
2022/03/31 03:23:53;;;;;;;13.10;10.90;;;;;;;1.89;83.10;97103.55;108163;1278;23136;-70
2022/03/31 03:26:21;;;;;;;15.20;11.00;;;;;;;1.88;82.84;97107.22;108190;1277;22570;-73
2022/03/31 03:28:48;;;;;;;17.10;12.70;;;;;;;1.87;82.57;97106.73;108122;1277;22581;-72
2022/03/31 03:31:16;;;;;;;18.80;14.80;;;;;;;1.91;82.48;97102.92;108119;1277;22580;-72
2022/03/31 03:33:43;;;;;;;18.70;14.20;;;;;;;1.91;82.80;97105.48;108056;1278;22537;-80
2022/03/31 03:36:12;;;;;;;16.20;13.00;;;;;;;1.93;83.06;97103.69;108114;1277;22595;-80
2022/03/31 03:38:43;;;;;;;14.20;11.50;;;;;;;1.94;83.22;97100.90;108079;1277;22551;-81
2022/03/31 03:41:11;;;;;;;14.00;10.80;;;;;;;1.90;83.12;97107.42;108138;1277;23982;-81
2022/03/31 03:43:42;;;;;;;12.70;10.30;;;;;;;1.87;82.80;97106.73;108215;1278;22557;-81
2022/03/31 03:46:10;;;;;;;12.30;8.50;;;;;;;1.85;82.79;97108.20;108113;1277;23179;-79
2022/03/31 03:48:37;;;;;;;15.40;11.50;;;;;;;1.83;82.66;97112.62;108156;1278;22575;-74
2022/03/31 03:51:05;;;;;;;15.70;12.30;;;;;;;1.83;82.92;97113.34;108106;1278;22534;-69
2022/03/31 03:53:32;;;;;;;14.50;11.70;;;;;;;1.84;82.99;97114.80;108146;1277;22605;-69
2022/03/31 03:55:59;;;;;;;13.80;10.60;;;;;;;1.84;83.34;97117.73;108072;1278;24432;-69
2022/03/31 03:58:26;;;;;;;15.30;10.90;;;;;;;1.79;83.50;97120.91;108099;1277;22693;-70
2022/03/31 04:00:53;;;;;;;13.40;9.50;;;;;;;1.74;83.42;97124.80;108094;1277;22661;-70
2022/03/31 04:03:20;;;;;;;16.40;11.60;;;;;;;1.68;83.30;97126.48;108087;1278;25106;-69
2022/03/31 04:05:48;;;;;;;12.40;9.30;;;;;;;1.64;83.05;97132.37;108100;1278;24265;-72
2022/03/31 04:08:15;;;;;;;14.80;11.70;;;;;;;1.60;83.02;97131.77;108093;1277;26268;-68
2022/03/31 04:10:42;;;;;;;18.90;14.80;;;;;;;1.61;82.95;97133.20;108110;1277;22596;-75
2022/03/31 04:13:09;;;;;;;16.40;13.10;;;;;;;1.62;83.15;97127.31;108099;1277;22707;-69
2022/03/31 04:15:36;;;;;;;21.10;16.70;;;;;;;1.63;83.01;97120.40;108081;1277;22796;-68
2022/03/31 04:18:05;;;;;;;16.00;11.40;;;;;;;1.59;83.12;97122.17;108119;1278;22534;-75
2022/03/31 04:20:32;;;;;;;19.30;14.70;;;;;;;1.54;83.20;97123.11;108138;1277;22574;-69
2022/03/31 04:23:00;;;;;;;16.00;11.40;;;;;;;1.54;83.16;97127.40;108311;1278;22536;-72
2022/03/31 04:25:27;;;;;;;15.50;12.10;;;;;;;1.51;82.81;97127.23;108314;1278;22617;-75
2022/03/31 04:27:54;;;;;;;18.50;12.90;;;;;;;1.49;82.74;97122.87;108335;1277;22533;-76
2022/03/31 04:30:21;;;;;;;23.50;16.80;;;;;;;1.49;82.94;97123.55;108326;1277;22543;-73
2022/03/31 04:32:49;;;;;;;18.00;12.90;;;;;;;1.49;83.31;97126.14;108305;1277;22560;-71
2022/03/31 04:35:16;;;;;;;18.80;13.40;;;;;;;1.51;83.39;97126.18;108334;1278;22692;-68
2022/03/31 04:37:44;;;;;;;15.30;11.80;;;;;;;1.48;83.57;97126.01;108334;1277;26628;-76
2022/03/31 04:40:14;;;;;;;18.60;12.30;;;;;;;1.45;83.45;97121.17;108341;1278;22708;-72
2022/03/31 04:42:41;;;;;;;14.20;10.80;;;;;;;1.42;83.32;97117.90;108327;1277;22554;-73
2022/03/31 04:45:09;;;;;;;12.30;9.10;;;;;;;1.39;83.11;97121.15;108321;1277;22565;-76
2022/03/31 04:47:36;;;;;;;14.70;11.10;;;;;;;1.39;83.02;97113.80;108356;1277;22541;-73
2022/03/31 04:50:04;;;;;;;14.30;10.20;;;;;;;1.42;83.16;97111.24;108319;1277;25255;-69
2022/03/31 04:52:31;;;;;;;18.90;11.70;;;;;;;1.47;83.02;97113.00;108324;1277;22626;-69
2022/03/31 04:54:58;;;;;;;19.60;12.30;;;;;;;1.46;83.37;97115.80;108215;1277;22569;-75
2022/03/31 04:57:26;;;;;;;14.40;10.70;;;;;;;1.45;83.50;97123.95;108072;1277;22553;-79
2022/03/31 04:59:53;;;;;;;15.20;10.90;;;;;;;1.45;83.60;97127.55;108051;1277;23096;-70
2022/03/31 05:02:20;;;;;;;16.80;9.20;;;;;;;1.46;83.18;97131.59;108081;1277;22534;-78
2022/03/31 05:04:47;;;;;;;18.60;12.30;;;;;;;1.47;83.01;97139.58;108136;1277;22548;-69
2022/03/31 05:07:14;;;;;;;16.10;12.00;;;;;;;1.51;83.23;97141.33;108139;1277;22630;-69
2022/03/31 05:09:41;;;;;;;15.40;11.40;;;;;;;1.57;83.16;97138.90;108073;1278;22537;-73
2022/03/31 05:12:09;;;;;;;14.20;10.30;;;;;;;1.58;83.21;97138.55;108078;1277;24419;-70
2022/03/31 05:14:36;;;;;;;17.00;11.30;;;;;;;1.55;83.44;97137.47;108031;1277;22619;-68
2022/03/31 05:17:04;;;;;;;19.10;12.10;;;;;;;1.51;83.32;97140.61;108133;1278;22544;-68
2022/03/31 05:19:31;;;;;;;16.30;9.50;;;;;;;1.52;83.12;97146.08;108188;1277;24431;-72
2022/03/31 05:21:58;;;;;;;15.40;10.40;;;;;;;1.52;82.72;97145.02;108200;1277;22652;-68
2022/03/31 05:24:25;;;;;;;14.40;9.50;;;;;;;1.53;82.59;97141.54;108134;1277;23131;-70
2022/03/31 05:26:53;;;;;;;15.30;11.10;;;;;;;1.60;82.56;97144.23;108073;1277;26204;-72
2022/03/31 05:29:21;;;;;;;25.50;14.90;;;;;;;1.64;82.77;97146.27;108088;1277;22566;-71
2022/03/31 05:31:50;;;;;;;50.00;23.60;;;;;;;1.65;82.99;97146.02;108154;1277;22541;-68
2022/03/31 05:34:19;;;;;;;28.00;16.40;;;;;;;1.64;83.00;97148.14;108107;1277;22559;-69
2022/03/31 05:36:47;;;;;;;17.60;11.40;;;;;;;1.65;83.10;97157.20;108249;1277;22555;-70
2022/03/31 05:39:16;;;;;;;20.30;13.80;;;;;;;1.67;82.87;97163.30;108114;1277;23122;-69
2022/03/31 05:41:43;;;;;;;26.50;14.80;;;;;;;1.63;82.66;97173.27;108089;1277;22688;-72
2022/03/31 05:44:10;;;;;;;63.30;23.10;;;;;;;1.63;82.39;97177.00;108059;1277;22576;-73
2022/03/31 05:46:37;;;;;;;80.00;25.90;;;;;;;1.68;82.52;97176.94;108131;1278;22718;-68
2022/03/31 05:49:04;;;;;;;66.80;23.20;;;;;;;1.70;82.63;97173.58;108111;1277;25278;-74
2022/03/31 05:51:31;;;;;;;22.60;12.60;;;;;;;1.73;82.85;97178.73;108112;1277;22559;-71
2022/03/31 05:53:58;;;;;;;33.20;16.70;;;;;;;1.74;82.89;97180.21;108124;1278;23010;-74
2022/03/31 05:56:26;;;;;;;38.20;16.90;;;;;;;1.73;82.59;97174.59;108120;1277;22548;-70
2022/03/31 05:58:53;;;;;;;33.10;15.00;;;;;;;1.71;82.43;97173.18;108119;1277;22557;-70
2022/03/31 06:01:19;;;;;;;30.70;15.50;;;;;;;1.69;82.22;97178.08;108166;1277;22556;-69
2022/03/31 06:03:46;;;;;;;56.10;18.40;;;;;;;1.73;82.17;97180.27;108143;1277;22622;-70
2022/03/31 06:06:14;;;;;;;27.10;13.90;;;;;;;1.76;82.40;97183.54;108065;1277;22551;-69
2022/03/31 06:08:42;;;;;;;24.70;12.40;;;;;;;1.78;82.44;97179.30;108112;1277;22617;-69
2022/03/31 06:11:09;;;;;;;16.30;9.40;;;;;;;1.82;82.48;97181.17;108122;1277;22629;-70
2022/03/31 06:13:36;;;;;;;22.80;11.70;;;;;;;1.79;82.29;97186.84;108037;1277;22713;-70
2022/03/31 06:16:04;;;;;;;15.90;9.70;;;;;;;1.75;82.24;97185.66;108062;1278;22630;-70
2022/03/31 06:18:31;;;;;;;20.00;11.20;;;;;;;1.75;82.15;97182.92;108083;1277;22565;-69
2022/03/31 06:20:58;;;;;;;13.50;9.50;;;;;;;1.73;82.20;97178.55;108051;1277;22529;-71
2022/03/31 06:23:26;;;;;;;19.30;12.80;;;;;;;1.74;82.16;97175.77;108101;1277;22560;-70
2022/03/31 06:25:53;;;;;;;17.60;11.60;;;;;;;1.80;82.31;97172.49;108045;1277;22570;-70
2022/03/31 06:28:20;;;;;;;30.40;14.60;;;;;;;1.85;82.79;97172.27;108080;1277;25414;-69
2022/03/31 06:30:48;;;;;;;15.80;9.00;;;;;;;1.87;82.95;97177.10;108035;1277;22569;-74
2022/03/31 06:33:16;;;;;;;20.00;10.30;;;;;;;1.89;82.95;97176.68;107970;1281;22631;-73
2022/03/31 06:35:44;;;;;;;34.20;15.30;;;;;;;1.94;82.46;97171.64;108161;1277;22560;-69
2022/03/31 06:38:12;;;;;;;28.90;13.30;;;;;;;1.95;82.52;97171.58;108175;1277;23498;-71
2022/03/31 06:40:41;;;;;;;21.20;12.20;;;;;;;1.97;82.57;97173.19;108070;1277;22693;-71
2022/03/31 06:43:08;;;;;;;14.50;9.50;;;;;;;1.99;82.86;97175.29;108308;1277;22537;-72
2022/03/31 06:45:35;;;;;;;28.40;13.00;;;;;;;2.05;82.96;97169.83;108140;1277;22621;-72
2022/03/31 06:48:04;;;;;;;17.00;10.80;;;;;;;2.02;82.79;97168.42;108075;1277;22566;-68
2022/03/31 06:50:34;;;;;;;16.10;10.40;;;;;;;2.06;82.38;97164.11;108193;1277;25236;-70
2022/03/31 06:53:02;;;;;;;20.00;12.10;;;;;;;2.05;82.47;97169.65;108125;1277;22746;-69
2022/03/31 06:55:30;;;;;;;21.10;13.70;;;;;;;2.06;82.63;97169.56;108070;1277;25821;-70
2022/03/31 06:57:57;;;;;;;20.40;13.20;;;;;;;2.09;82.78;97164.41;107883;1277;22620;-69
2022/03/31 07:00:25;;;;;;;18.40;11.10;;;;;;;2.11;83.01;97170.16;108076;1277;22680;-69
2022/03/31 07:02:52;;;;;;;22.30;11.40;;;;;;;2.15;82.99;97169.42;108251;1277;22535;-69
2022/03/31 07:05:19;;;;;;;13.70;8.20;;;;;;;2.12;82.65;97170.29;107960;1278;22555;-70
2022/03/31 07:07:47;;;;;;;14.90;9.40;;;;;;;2.06;82.26;97169.77;107961;1278;22536;-70
2022/03/31 07:10:14;;;;;;;21.20;14.10;;;;;;;2.06;82.07;97174.91;107986;1278;22538;-73
2022/03/31 07:12:41;;;;;;;15.50;10.80;;;;;;;2.05;82.29;97173.57;107985;1278;22641;-72
2022/03/31 07:15:09;;;;;;;16.60;11.70;;;;;;;2.05;82.37;97173.40;108010;1278;22564;-74
2022/03/31 07:17:36;;;;;;;53.30;22.90;;;;;;;2.09;82.63;97170.46;108173;1277;25867;-73
2022/03/31 07:20:05;;;;;;;13.50;10.00;;;;;;;2.14;82.63;97174.30;107972;1278;24303;-74
2022/03/31 07:22:33;;;;;;;16.00;11.30;;;;;;;2.17;82.25;97172.39;107988;1278;24242;-70
2022/03/31 07:25:01;;;;;;;17.70;12.10;;;;;;;2.21;81.99;97166.88;108067;1277;22550;-71
2022/03/31 07:27:28;;;;;;;21.00;13.50;;;;;;;2.31;82.06;97170.27;108026;1277;24247;-75
2022/03/31 07:29:55;;;;;;;20.20;12.60;;;;;;;2.41;82.17;97170.40;107986;1277;22759;-72
2022/03/31 07:32:22;;;;;;;15.30;10.60;;;;;;;2.48;82.13;97175.52;108045;1277;22537;-71
2022/03/31 07:34:49;;;;;;;18.90;13.30;;;;;;;2.44;82.14;97179.00;108242;1277;23228;-70
2022/03/31 07:37:17;;;;;;;13.20;9.50;;;;;;;2.49;81.84;97180.96;108146;1277;22623;-72
2022/03/31 07:39:45;;;;;;;21.30;13.50;;;;;;;2.55;81.57;97178.55;108206;1277;22569;-70
2022/03/31 07:42:14;;;;;;;20.70;13.20;;;;;;;2.56;81.46;97184.87;108240;1277;22707;-70
2022/03/31 07:44:42;;;;;;;16.90;13.00;;;;;;;2.62;81.25;97185.70;108279;1277;22573;-76
2022/03/31 07:47:09;;;;;;;21.80;14.30;;;;;;;2.70;81.30;97185.28;108294;1277;22682;-72
2022/03/31 07:49:36;;;;;;;20.90;14.00;;;;;;;2.73;81.32;97184.95;108316;1277;22617;-73
2022/03/31 07:52:04;;;;;;;15.20;10.60;;;;;;;2.74;81.48;97186.94;108314;1277;22547;-77
2022/03/31 07:54:31;;;;;;;14.20;10.50;;;;;;;2.77;81.26;97189.02;108347;1277;22556;-71
2022/03/31 07:56:58;;;;;;;23.80;13.20;;;;;;;2.76;80.74;97193.16;108347;1277;22540;-71
2022/03/31 07:59:32;;;;;;;16.20;10.60;;;;;;;2.75;80.65;97193.07;108354;1277;22565;-70
2022/03/31 08:02:02;;;;;;;12.00;9.20;;;;;;;2.77;80.63;97195.16;108337;1277;22549;-82
2022/03/31 08:04:29;;;;;;;17.40;10.60;;;;;;;2.86;80.22;97197.08;108346;1277;22648;-70
2022/03/31 08:06:56;;;;;;;119.70;75.10;;;;;;;2.83;80.10;97198.81;108335;1278;22534;-76
2022/03/31 08:09:23;;;;;;;17.10;12.00;;;;;;;2.85;80.24;97198.52;108352;1277;22525;-71
2022/03/31 08:11:50;;;;;;;15.90;11.60;;;;;;;2.82;79.96;97199.39;108318;1277;22622;-70
2022/03/31 08:14:19;;;;;;;16.70;12.10;;;;;;;2.80;79.85;97196.58;108356;1277;22665;-72
2022/03/31 08:16:50;;;;;;;26.80;15.60;;;;;;;2.78;79.87;97201.64;108336;1277;25480;-72
2022/03/31 08:19:19;;;;;;;15.30;10.50;;;;;;;2.86;79.69;97208.73;108379;1277;22573;-70
2022/03/31 08:21:48;;;;;;;16.40;12.50;;;;;;;2.86;79.68;97209.95;108349;1277;22552;-74
2022/03/31 08:24:16;;;;;;;17.50;11.40;;;;;;;2.97;79.74;97211.92;108351;1277;22552;-78
2022/03/31 08:26:45;;;;;;;13.90;10.70;;;;;;;2.91;79.85;97212.42;108362;1277;22573;-70
2022/03/31 08:29:12;;;;;;;15.70;12.40;;;;;;;2.85;80.03;97211.58;108359;1277;22695;-71
2022/03/31 08:31:39;;;;;;;21.70;17.20;;;;;;;2.86;79.99;97212.56;108397;1277;22590;-70
2022/03/31 08:34:07;;;;;;;15.90;11.70;;;;;;;2.89;79.78;97215.63;108339;1277;24262;-70
2022/03/31 08:36:35;;;;;;;16.50;10.70;;;;;;;2.94;79.43;97210.71;108333;1277;22534;-71
2022/03/31 08:39:06;;;;;;;19.30;12.80;;;;;;;2.94;79.70;97214.16;108379;1277;22570;-74
2022/03/31 08:41:33;;;;;;;50.90;30.50;;;;;;;2.98;79.69;97209.80;108377;1277;22556;-86
2022/03/31 08:44:01;;;;;;;38.50;23.50;;;;;;;2.95;79.97;97213.91;108382;1277;22533;-71
2022/03/31 08:46:33;;;;;;;27.00;17.20;;;;;;;3.00;79.83;97211.42;108367;1277;22562;-70
2022/03/31 08:49:02;;;;;;;24.80;16.30;;;;;;;3.01;79.37;97205.67;108351;1277;22617;-71
2022/03/31 08:51:29;;;;;;;37.90;24.90;;;;;;;2.99;79.30;97206.27;108338;1277;22880;-71
2022/03/31 08:53:56;;;;;;;21.00;15.70;;;;;;;3.04;79.46;97207.55;108331;1277;22489;-73
2022/03/31 08:56:23;;;;;;;21.20;14.90;;;;;;;2.97;79.53;97214.97;108357;1277;22538;-72
2022/03/31 08:58:50;;;;;;;25.10;17.40;;;;;;;3.01;79.74;97222.16;108328;1277;22580;-70
2022/03/31 09:01:17;;;;;;;33.70;21.30;;;;;;;2.97;79.36;97215.20;108357;1277;22531;-71
2022/03/31 09:03:44;;;;;;;29.10;17.40;;;;;;;2.91;79.23;97215.70;108343;1277;22714;-83
2022/03/31 09:06:22;;;;;;;27.10;17.50;;;;;;;2.87;79.19;97217.32;108336;1277;22554;-82
2022/03/31 09:08:56;;;;;;;21.10;15.40;;;;;;;2.87;79.27;97219.18;108345;1277;22573;-77
2022/03/31 09:11:34;;;;;;;28.50;18.40;;;;;;;2.87;79.16;97219.23;108352;1277;23171;-71
2022/03/31 09:14:03;;;;;;;25.80;17.50;;;;;;;2.95;79.35;97224.57;108273;1278;22562;-71
2022/03/31 09:16:31;;;;;;;25.30;19.60;;;;;;;2.97;79.44;97230.47;108330;1277;23349;-75
2022/03/31 09:19:00;;;;;;;21.00;15.20;;;;;;;2.93;79.54;97231.91;108339;1277;25696;-73
2022/03/31 09:21:27;;;;;;;24.00;16.00;;;;;;;2.92;79.43;97228.52;108319;1277;22610;-83
2022/03/31 09:23:56;;;;;;;26.60;19.20;;;;;;;2.89;79.36;97224.91;108346;1277;22546;-71
2022/03/31 09:26:27;;;;;;;23.00;16.80;;;;;;;2.91;79.00;97224.12;108310;1277;22570;-71
2022/03/31 09:28:55;;;;;;;24.10;17.90;;;;;;;2.96;79.09;97226.44;108322;1277;22588;-72
2022/03/31 09:31:24;;;;;;;32.60;22.50;;;;;;;2.99;79.25;97230.02;108336;1277;22649;-77
2022/03/31 09:33:58;;;;;;;34.80;21.70;;;;;;;3.00;79.49;97236.67;108289;1278;22549;-83
2022/03/31 09:36:26;;;;;;;23.70;15.60;;;;;;;3.02;79.60;97235.55;108315;1277;22560;-83
2022/03/31 09:39:02;;;;;;;27.40;19.20;;;;;;;2.99;79.42;97237.77;108313;1277;22724;-78
2022/03/31 09:41:31;;;;;;;32.40;21.50;;;;;;;2.97;79.24;97239.58;108304;1277;22561;-83
2022/03/31 09:44:07;;;;;;;21.60;15.00;;;;;;;3.01;79.09;97241.08;108269;1277;22617;-75
2022/03/31 09:46:38;;;;;;;26.10;21.10;;;;;;;3.05;78.72;97235.02;108304;1277;22549;-80
2022/03/31 09:49:27;;;;;;;28.10;21.10;;;;;;;3.09;79.10;97233.22;108298;1277;22547;-82
2022/03/31 09:51:59;;;;;;;33.70;23.50;;;;;;;3.15;79.42;97231.67;108276;1277;22536;-73
2022/03/31 09:54:29;;;;;;;30.20;19.70;;;;;;;3.14;79.37;97227.96;108316;1277;22865;-73
2022/03/31 09:56:59;;;;;;;22.10;15.40;;;;;;;3.17;79.25;97223.14;108739;1277;22549;-71
2022/03/31 09:59:35;;;;;;;20.80;15.70;;;;;;;3.16;79.03;97216.02;108302;1277;22537;-87
2022/03/31 10:02:03;;;;;;;18.70;12.70;;;;;;;3.11;79.03;97213.90;108290;1277;24128;-83
2022/03/31 10:04:32;;;;;;;19.10;12.10;;;;;;;3.13;78.92;97212.70;108291;1277;25354;-72
2022/03/31 10:07:00;;;;;;;32.00;19.90;;;;;;;3.17;78.58;97205.95;108341;1277;25311;-71
2022/03/31 10:09:27;;;;;;;20.40;15.40;;;;;;;3.18;78.54;97201.22;108338;1277;24217;-87
2022/03/31 10:12:13;;;;;;;23.30;15.90;;;;;;;3.12;78.47;97193.00;108343;1277;22586;-71
2022/03/31 10:14:54;;;;;;;31.90;22.60;;;;;;;3.04;78.83;97193.80;108311;1277;22666;-87
2022/03/31 10:17:28;;;;;;;28.80;19.50;;;;;;;3.06;78.55;97193.70;108306;1277;22544;-80
2022/03/31 10:20:13;;;;;;;19.40;14.40;;;;;;;3.12;78.69;97187.86;108296;1277;22530;-88
2022/03/31 10:25:41;;;;;;;23.90;17.50;;;;;;;3.06;78.84;97182.66;108325;1277;25307;-72
2022/03/31 10:28:22;;;;;;;28.40;21.00;;;;;;;3.06;78.83;97179.08;108313;1277;22569;-76
2022/03/31 10:31:04;;;;;;;26.70;20.10;;;;;;;3.04;78.93;97180.23;108320;1277;22699;-82
2022/03/31 10:33:37;;;;;;;27.10;19.10;;;;;;;3.03;78.99;97182.00;108286;1277;22671;-73
2022/03/31 10:36:12;;;;;;;21.00;15.90;;;;;;;3.07;78.67;97182.29;108297;1277;24224;-78
2022/03/31 10:39:03;;;;;;;31.20;23.00;;;;;;;3.04;79.05;97187.98;108316;1277;22577;-71
2022/03/31 10:41:33;;;;;;;27.70;20.40;;;;;;;3.09;79.31;97186.27;108304;1277;22711;-86
2022/03/31 10:44:23;;;;;;;21.00;14.50;;;;;;;3.08;79.39;97186.02;108340;1277;22706;-74
2022/03/31 10:47:01;;;;;;;16.80;11.20;;;;;;;3.13;79.33;97189.36;108355;1277;22623;-70
2022/03/31 10:49:30;;;;;;;24.30;17.70;;;;;;;3.12;78.97;97186.82;108380;1277;22630;-75
2022/03/31 10:51:58;;;;;;;48.80;31.20;;;;;;;3.10;78.88;97191.75;108374;1277;22535;-74
2022/03/31 10:54:31;;;;;;;30.10;21.40;;;;;;;3.09;78.93;97192.13;108360;1277;22998;-71
2022/03/31 10:57:05;;;;;;;42.10;28.30;;;;;;;3.07;79.31;97196.02;108341;1277;22711;-75
2022/03/31 10:59:34;;;;;;;35.40;24.40;;;;;;;3.13;79.41;97198.27;108172;1277;22634;-75
2022/03/31 11:02:08;;;;;;;30.10;20.40;;;;;;;3.08;79.29;97198.41;108030;1277;22581;-80
2022/03/31 11:04:57;;;;;;;27.30;19.10;;;;;;;3.05;79.28;97197.36;108242;1277;24395;-74
2022/03/31 11:07:26;;;;;;;23.00;16.10;;;;;;;3.05;79.32;97195.14;108058;1277;22573;-81
2022/03/31 11:10:19;;;;;;;23.80;17.20;;;;;;;3.06;79.32;97195.08;108066;1277;22571;-78
2022/03/31 11:12:47;;;;;;;26.60;17.50;;;;;;;3.05;79.57;97194.59;108030;1277;22530;-74
2022/03/31 11:15:18;;;;;;;21.30;14.50;;;;;;;3.04;79.57;97193.61;108084;1277;22540;-73
2022/03/31 11:17:48;;;;;;;27.60;20.30;;;;;;;3.02;79.47;97192.37;108060;1277;22538;-75
2022/03/31 11:20:21;;;;;;;30.00;21.50;;;;;;;2.98;79.40;97188.46;108079;1277;22549;-71
2022/03/31 11:22:52;;;;;;;;;;;;;;;2.97;79.47;97190.37;108082;1277;22552;-76
2022/03/31 11:25:21;;;;;;;26.90;20.00;;;;;;;2.99;79.54;97192.16;108081;1277;22583;-75
2022/03/31 11:27:49;;;;;;;31.90;22.60;;;;;;;3.05;79.55;97188.59;108120;1277;22683;-71
2022/03/31 11:30:19;;;;;;;25.80;19.20;;;;;;;2.99;79.85;97189.59;108058;1277;23253;-75
2022/03/31 11:32:49;;;;;;;27.00;19.10;;;;;;;2.96;80.02;97187.67;108065;1277;22577;-76